METAR de aeropuertos de Murcia y cercanos

 

LEMI - Murcia/Corvera
Actualización: 23/01/2022 05:30
Mostly Cloudy
Mostly Cloudy
 Viento del NE
Viento: NE 15 km/h
Temperatura: 9°C
Wind Chill: 7°C
Rocío: 7°C
Humedad: 87%
Barómetro: 1027 hPa
Nubosidad: Mostly Cloudy
Visibilidad: 10 km
Cloud details: Partly Cloudy 732 m
Partly Cloudy 1006 m
Mostly Cloudy 1433 m
2022/01/23 04:30 LEMI 230430Z AUTO 04008KT 9999 4400NE SCT024 SCT033 BKN047 09/07 Q1027
LERI - Murcia/Alcantarilla
Actualización: 22/01/2022 19:00
NO Actualizado
Light drizzle, Mist, Cubierto
Light drizzle, Mist, Cubierto
 Viento del calm
Viento: Calma
Temperatura: 9°C
Rocío: 9°C
Humedad: 100%
Barómetro: 1029 hPa
Resumen: Light drizzle, Mist
Nubosidad: Cubierto
Visibilidad: 4 km
Cloud details: Few Clouds 213 m
Cubierto 305 m
2022/01/22 18:00 LERI 221800Z 00000KT 3800 -DZ BR FEW007 OVC010 09/09 Q1029 NOSIG
LELC - Murcia/San Javier
Actualización: 23/01/2022 05:30
Partly Cloudy
Partly Cloudy
 Viento del E
Viento: E 15 km/h
Temperatura: 13°C
Rocío: 8°C
Humedad: 72%
Barómetro: 1027 hPa
Nubosidad: Partly Cloudy
Visibilidad: 10 km
Cloud details: Few Clouds 914 m
Partly Cloudy 1128 m
2022/01/23 04:30 LELC 230430Z AUTO 09008KT 060V120 9999 FEW030 SCT037 13/08 Q1027
 
LEAL - Alicante
Actualización: 23/01/2022 05:30
Lluvia débil, Parcialmente nublado
Lluvia débil, Parcialmente nublado
 Viento del N
Viento: N 7 km/h
Temperatura: 10°C
Wind Chill: 9°C
Rocío: 7°C
Humedad: 82%
Barómetro: 1027 hPa
Resumen: Light Rain
Nubosidad: Partly Cloudy
Visibilidad: 10 km
Cloud details: Few Clouds 366 m
Partly Cloudy 1524 m
2022/01/23 04:30 LEAL 230430Z 01004KT 9999 -RA FEW012 SCT050 10/07 Q1027 NOSIG
LEAB - Albacete
Actualización: 23/01/2022 05:30
Mostly Cloudy
Mostly Cloudy
 Viento del ESE
Viento: ESE 9 km/h
Temperatura: 5°C
Wind Chill: 3°C
Rocío: 4°C
Humedad: 93%
Barómetro: 1026 hPa
Nubosidad: Mostly Cloudy
Visibilidad: 10 km
Cloud details: Few Clouds 610 m
Mostly Cloudy 914 m
2022/01/23 04:30 LEAB 230430Z 11005KT 9999 FEW020 BKN030 05/04 Q1026 NOSIG
LEAM - Almería
Actualización: 23/01/2022 05:30
Few Clouds
Few Clouds
 Viento del NNE
Viento: NNE 15 km/h
Temperatura: 12°C
Rocío: 6°C
Humedad: 67%
Barómetro: 1025 hPa
Nubosidad: Few Clouds
Visibilidad: 10 km
Cloud details: Few Clouds 1829 m
2022/01/23 04:30 LEAM 230430Z 03008KT 9999 FEW060 12/06 Q1025

La estación de MeteoMurcia.com, publica sus datos en los siguientes proyectos:

Weather Underground PWS IMURCIAP2 Meteoclimatic www.awekas.at

W3Counter
Web Analytics